sensor_id;sensor_type;location;lat;lon;timestamp;temperature;humidity
62998;DHT22;55949;52.590;7.330;2024-03-08T00:00:53;4.60;99.90
62998;DHT22;55949;52.590;7.330;2024-03-08T00:01:53;4.60;99.90
62998;DHT22;55949;52.590;7.330;2024-03-08T00:02:54;4.60;99.90
62998;DHT22;55949;52.590;7.330;2024-03-08T00:03:55;4.60;99.90
62998;DHT22;55949;52.590;7.330;2024-03-08T00:04:55;4.50;99.90
62998;DHT22;55949;52.590;7.330;2024-03-08T00:05:58;4.50;99.90
62998;DHT22;55949;52.590;7.330;2024-03-08T00:07:02;4.60;99.90
62998;DHT22;55949;52.590;7.330;2024-03-08T00:08:06;4.50;99.90
62998;DHT22;55949;52.590;7.330;2024-03-08T00:09:10;4.50;99.90
62998;DHT22;55949;52.590;7.330;2024-03-08T00:10:12;4.50;99.90
62998;DHT22;55949;52.590;7.330;2024-03-08T00:11:15;4.50;99.90
62998;DHT22;55949;52.590;7.330;2024-03-08T00:12:16;4.50;99.90
62998;DHT22;55949;52.590;7.330;2024-03-08T00:13:17;4.50;99.90
62998;DHT22;55949;52.590;7.330;2024-03-08T00:14:24;4.50;99.90
62998;DHT22;55949;52.590;7.330;2024-03-08T00:15:49;4.50;99.90
62998;DHT22;55949;52.590;7.330;2024-03-08T00:16:54;4.50;99.90
62998;DHT22;55949;52.590;7.330;2024-03-08T00:17:54;4.40;99.90
62998;DHT22;55949;52.590;7.330;2024-03-08T00:18:55;4.40;99.90
62998;DHT22;55949;52.590;7.330;2024-03-08T00:19:56;4.40;99.90
62998;DHT22;55949;52.590;7.330;2024-03-08T00:20:57;4.40;99.90
62998;DHT22;55949;52.590;7.330;2024-03-08T00:21:58;4.40;99.90
62998;DHT22;55949;52.590;7.330;2024-03-08T00:22:59;4.40;99.90
62998;DHT22;55949;52.590;7.330;2024-03-08T00:24:14;4.30;99.90
62998;DHT22;55949;52.590;7.330;2024-03-08T00:25:25;4.30;99.90
62998;DHT22;55949;52.590;7.330;2024-03-08T00:26:29;4.30;99.90
62998;DHT22;55949;52.590;7.330;2024-03-08T00:27:30;4.30;99.90
62998;DHT22;55949;52.590;7.330;2024-03-08T00:28:31;4.30;99.90
62998;DHT22;55949;52.590;7.330;2024-03-08T00:29:35;4.30;99.90
62998;DHT22;55949;52.590;7.330;2024-03-08T00:30:48;4.30;99.90
62998;DHT22;55949;52.590;7.330;2024-03-08T00:32:07;4.30;99.90
62998;DHT22;55949;52.590;7.330;2024-03-08T00:33:19;4.30;99.90
62998;DHT22;55949;52.590;7.330;2024-03-08T00:34:19;4.20;99.90
62998;DHT22;55949;52.590;7.330;2024-03-08T00:35:25;4.20;99.90
62998;DHT22;55949;52.590;7.330;2024-03-08T00:36:29;4.20;99.90
62998;DHT22;55949;52.590;7.330;2024-03-08T00:37:30;4.20;99.90
62998;DHT22;55949;52.590;7.330;2024-03-08T00:38:31;4.20;99.90
62998;DHT22;55949;52.590;7.330;2024-03-08T00:39:36;4.30;99.90
62998;DHT22;55949;52.590;7.330;2024-03-08T00:40:40;4.20;99.90
62998;DHT22;55949;52.590;7.330;2024-03-08T00:41:47;4.20;99.90
62998;DHT22;55949;52.590;7.330;2024-03-08T00:42:48;4.20;99.90
62998;DHT22;55949;52.590;7.330;2024-03-08T00:43:48;4.20;99.90
62998;DHT22;55949;52.590;7.330;2024-03-08T00:44:49;4.20;99.90
62998;DHT22;55949;52.590;7.330;2024-03-08T00:45:51;4.10;99.90
62998;DHT22;55949;52.590;7.330;2024-03-08T00:46:52;4.20;99.90
62998;DHT22;55949;52.590;7.330;2024-03-08T00:47:53;4.20;99.90
62998;DHT22;55949;52.590;7.330;2024-03-08T00:48:54;4.20;99.90
62998;DHT22;55949;52.590;7.330;2024-03-08T00:49:55;4.20;99.90
62998;DHT22;55949;52.590;7.330;2024-03-08T00:50:57;4.10;99.90
62998;DHT22;55949;52.590;7.330;2024-03-08T00:51:58;4.10;99.90
62998;DHT22;55949;52.590;7.330;2024-03-08T00:52:58;4.10;99.90
62998;DHT22;55949;52.590;7.330;2024-03-08T00:53:59;4.10;99.90
62998;DHT22;55949;52.590;7.330;2024-03-08T00:55:00;4.10;99.90
62998;DHT22;55949;52.590;7.330;2024-03-08T00:56:01;4.10;99.90
62998;DHT22;55949;52.590;7.330;2024-03-08T00:57:02;4.10;99.90
62998;DHT22;55949;52.590;7.330;2024-03-08T00:58:03;4.10;99.90
62998;DHT22;55949;52.590;7.330;2024-03-08T00:59:04;4.10;99.90
62998;DHT22;55949;52.590;7.330;2024-03-08T01:00:06;4.10;99.90
62998;DHT22;55949;52.590;7.330;2024-03-08T01:01:13;4.10;99.90
62998;DHT22;55949;52.590;7.330;2024-03-08T01:02:16;4.10;99.90
62998;DHT22;55949;52.590;7.330;2024-03-08T01:03:19;4.10;99.90
62998;DHT22;55949;52.590;7.330;2024-03-08T01:04:20;4.00;99.90
62998;DHT22;55949;52.590;7.330;2024-03-08T01:05:22;4.10;99.90
62998;DHT22;55949;52.590;7.330;2024-03-08T01:06:24;4.00;99.90
62998;DHT22;55949;52.590;7.330;2024-03-08T01:07:25;4.00;99.90
62998;DHT22;55949;52.590;7.330;2024-03-08T01:08:26;4.00;99.90
62998;DHT22;55949;52.590;7.330;2024-03-08T01:09:27;4.00;99.90
62998;DHT22;55949;52.590;7.330;2024-03-08T01:10:28;4.00;99.90
62998;DHT22;55949;52.590;7.330;2024-03-08T01:11:29;4.00;99.90
62998;DHT22;55949;52.590;7.330;2024-03-08T01:12:29;4.00;99.90
62998;DHT22;55949;52.590;7.330;2024-03-08T01:13:30;4.00;99.90
62998;DHT22;55949;52.590;7.330;2024-03-08T01:14:31;4.00;99.90
62998;DHT22;55949;52.590;7.330;2024-03-08T01:15:32;4.00;99.90
62998;DHT22;55949;52.590;7.330;2024-03-08T01:16:32;3.90;99.90
62998;DHT22;55949;52.590;7.330;2024-03-08T01:17:33;3.90;99.90
62998;DHT22;55949;52.590;7.330;2024-03-08T01:18:34;4.00;99.90
62998;DHT22;55949;52.590;7.330;2024-03-08T01:19:35;4.00;99.90
62998;DHT22;55949;52.590;7.330;2024-03-08T01:20:36;4.00;99.90
62998;DHT22;55949;52.590;7.330;2024-03-08T01:21:37;4.00;99.90
62998;DHT22;55949;52.590;7.330;2024-03-08T01:22:38;4.00;99.90
62998;DHT22;55949;52.590;7.330;2024-03-08T01:23:39;4.00;99.90
62998;DHT22;55949;52.590;7.330;2024-03-08T01:24:40;4.00;99.90
62998;DHT22;55949;52.590;7.330;2024-03-08T01:25:41;4.00;99.90
62998;DHT22;55949;52.590;7.330;2024-03-08T01:26:44;4.00;99.90
62998;DHT22;55949;52.590;7.330;2024-03-08T01:27:45;4.00;99.90
62998;DHT22;55949;52.590;7.330;2024-03-08T01:28:46;4.10;99.90
62998;DHT22;55949;52.590;7.330;2024-03-08T01:29:47;4.00;99.90
62998;DHT22;55949;52.590;7.330;2024-03-08T01:30:47;4.00;99.90
62998;DHT22;55949;52.590;7.330;2024-03-08T01:31:50;4.00;99.90
62998;DHT22;55949;52.590;7.330;2024-03-08T01:32:52;4.00;99.90
62998;DHT22;55949;52.590;7.330;2024-03-08T01:33:53;4.00;99.90
62998;DHT22;55949;52.590;7.330;2024-03-08T01:34:54;4.00;99.90
62998;DHT22;55949;52.590;7.330;2024-03-08T01:35:55;4.00;99.90
62998;DHT22;55949;52.590;7.330;2024-03-08T01:36:57;4.00;99.90
62998;DHT22;55949;52.590;7.330;2024-03-08T01:37:58;4.10;99.90
62998;DHT22;55949;52.590;7.330;2024-03-08T01:38:59;4.10;99.90
62998;DHT22;55949;52.590;7.330;2024-03-08T01:39:59;4.00;99.90
62998;DHT22;55949;52.590;7.330;2024-03-08T01:41:00;4.00;99.90
62998;DHT22;55949;52.590;7.330;2024-03-08T01:42:01;4.00;99.90
62998;DHT22;55949;52.590;7.330;2024-03-08T01:43:25;4.00;99.90
62998;DHT22;55949;52.590;7.330;2024-03-08T01:44:27;4.00;99.90
62998;DHT22;55949;52.590;7.330;2024-03-08T01:45:28;3.90;99.90
62998;DHT22;55949;52.590;7.330;2024-03-08T01:46:30;3.90;99.90
62998;DHT22;55949;52.590;7.330;2024-03-08T01:47:32;3.90;99.90
62998;DHT22;55949;52.590;7.330;2024-03-08T01:48:33;3.90;99.90
62998;DHT22;55949;52.590;7.330;2024-03-08T01:49:34;3.80;99.90
62998;DHT22;55949;52.590;7.330;2024-03-08T01:50:35;3.80;99.90
62998;DHT22;55949;52.590;7.330;2024-03-08T01:51:37;3.80;99.90
62998;DHT22;55949;52.590;7.330;2024-03-08T01:52:39;3.80;99.90
62998;DHT22;55949;52.590;7.330;2024-03-08T01:53:40;3.80;99.90
62998;DHT22;55949;52.590;7.330;2024-03-08T01:54:43;3.80;99.90
62998;DHT22;55949;52.590;7.330;2024-03-08T01:55:53;3.80;99.90
62998;DHT22;55949;52.590;7.330;2024-03-08T01:56:54;3.80;99.90
62998;DHT22;55949;52.590;7.330;2024-03-08T01:57:55;3.80;99.90
62998;DHT22;55949;52.590;7.330;2024-03-08T01:58:56;3.80;99.90
62998;DHT22;55949;52.590;7.330;2024-03-08T01:59:57;3.90;99.90
62998;DHT22;55949;52.590;7.330;2024-03-08T02:00:58;3.80;99.90
62998;DHT22;55949;52.590;7.330;2024-03-08T02:02:02;3.90;99.90
62998;DHT22;55949;52.590;7.330;2024-03-08T02:03:06;3.80;99.90
62998;DHT22;55949;52.590;7.330;2024-03-08T02:04:07;3.80;99.90
62998;DHT22;55949;52.590;7.330;2024-03-08T02:05:07;3.80;99.90
62998;DHT22;55949;52.590;7.330;2024-03-08T02:06:09;3.80;99.90
62998;DHT22;55949;52.590;7.330;2024-03-08T02:07:10;3.80;99.90
62998;DHT22;55949;52.590;7.330;2024-03-08T02:08:12;3.80;99.90
62998;DHT22;55949;52.590;7.330;2024-03-08T02:09:14;3.80;99.90
62998;DHT22;55949;52.590;7.330;2024-03-08T02:10:18;3.80;99.90
62998;DHT22;55949;52.590;7.330;2024-03-08T02:11:20;3.80;99.90
62998;DHT22;55949;52.590;7.330;2024-03-08T02:12:21;3.80;99.90
62998;DHT22;55949;52.590;7.330;2024-03-08T02:13:22;3.80;99.90
62998;DHT22;55949;52.590;7.330;2024-03-08T02:14:22;3.70;99.90
62998;DHT22;55949;52.590;7.330;2024-03-08T02:15:24;3.70;99.90
62998;DHT22;55949;52.590;7.330;2024-03-08T02:16:25;3.80;99.90
62998;DHT22;55949;52.590;7.330;2024-03-08T02:17:25;3.80;99.90
62998;DHT22;55949;52.590;7.330;2024-03-08T02:18:27;3.80;99.90
62998;DHT22;55949;52.590;7.330;2024-03-08T02:19:28;3.70;99.90
62998;DHT22;55949;52.590;7.330;2024-03-08T02:20:29;3.80;99.90
62998;DHT22;55949;52.590;7.330;2024-03-08T02:21:30;3.60;99.90
62998;DHT22;55949;52.590;7.330;2024-03-08T02:22:31;3.60;99.90
62998;DHT22;55949;52.590;7.330;2024-03-08T02:23:33;3.70;99.90
62998;DHT22;55949;52.590;7.330;2024-03-08T02:24:34;3.70;99.90
62998;DHT22;55949;52.590;7.330;2024-03-08T02:25:35;3.60;99.90
62998;DHT22;55949;52.590;7.330;2024-03-08T02:26:36;3.70;99.90
62998;DHT22;55949;52.590;7.330;2024-03-08T02:27:37;3.70;99.90
62998;DHT22;55949;52.590;7.330;2024-03-08T02:28:38;3.70;99.90
62998;DHT22;55949;52.590;7.330;2024-03-08T02:29:40;3.70;99.90
62998;DHT22;55949;52.590;7.330;2024-03-08T02:30:43;3.70;99.90
62998;DHT22;55949;52.590;7.330;2024-03-08T02:31:43;3.70;99.90
62998;DHT22;55949;52.590;7.330;2024-03-08T02:32:44;3.60;99.90
62998;DHT22;55949;52.590;7.330;2024-03-08T02:33:45;3.70;99.90
62998;DHT22;55949;52.590;7.330;2024-03-08T02:34:48;3.70;99.90
62998;DHT22;55949;52.590;7.330;2024-03-08T02:35:49;3.60;99.90
62998;DHT22;55949;52.590;7.330;2024-03-08T02:36:51;3.70;99.90
62998;DHT22;55949;52.590;7.330;2024-03-08T02:37:52;3.70;99.90
62998;DHT22;55949;52.590;7.330;2024-03-08T02:38:53;3.70;99.90
62998;DHT22;55949;52.590;7.330;2024-03-08T02:39:55;3.60;99.90
62998;DHT22;55949;52.590;7.330;2024-03-08T02:40:56;3.60;99.90
62998;DHT22;55949;52.590;7.330;2024-03-08T02:41:57;3.60;99.90
62998;DHT22;55949;52.590;7.330;2024-03-08T02:42:58;3.60;99.90
62998;DHT22;55949;52.590;7.330;2024-03-08T02:43:58;3.70;99.90
62998;DHT22;55949;52.590;7.330;2024-03-08T02:45:00;3.60;99.90
62998;DHT22;55949;52.590;7.330;2024-03-08T02:46:01;3.70;99.90
62998;DHT22;55949;52.590;7.330;2024-03-08T02:47:02;3.70;99.90
62998;DHT22;55949;52.590;7.330;2024-03-08T02:48:03;3.60;99.90
62998;DHT22;55949;52.590;7.330;2024-03-08T02:49:04;3.70;99.90
62998;DHT22;55949;52.590;7.330;2024-03-08T02:50:05;3.70;99.90
62998;DHT22;55949;52.590;7.330;2024-03-08T02:51:08;3.70;99.90
62998;DHT22;55949;52.590;7.330;2024-03-08T02:52:11;3.70;99.90
62998;DHT22;55949;52.590;7.330;2024-03-08T02:53:12;3.70;99.90
62998;DHT22;55949;52.590;7.330;2024-03-08T02:54:13;3.70;99.90
62998;DHT22;55949;52.590;7.330;2024-03-08T02:55:16;3.70;99.90
62998;DHT22;55949;52.590;7.330;2024-03-08T02:56:25;3.70;99.90
62998;DHT22;55949;52.590;7.330;2024-03-08T02:57:27;3.60;99.90
62998;DHT22;55949;52.590;7.330;2024-03-08T02:58:27;3.60;99.90
62998;DHT22;55949;52.590;7.330;2024-03-08T02:59:31;3.60;99.90
62998;DHT22;55949;52.590;7.330;2024-03-08T03:00:32;3.60;99.90
62998;DHT22;55949;52.590;7.330;2024-03-08T03:01:33;3.60;99.90
62998;DHT22;55949;52.590;7.330;2024-03-08T03:02:35;3.60;99.90
62998;DHT22;55949;52.590;7.330;2024-03-08T03:03:36;3.50;99.90
62998;DHT22;55949;52.590;7.330;2024-03-08T03:04:40;3.60;99.90
62998;DHT22;55949;52.590;7.330;2024-03-08T03:05:40;3.50;99.90
62998;DHT22;55949;52.590;7.330;2024-03-08T03:06:44;3.60;99.90
62998;DHT22;55949;52.590;7.330;2024-03-08T03:07:45;3.60;99.90
62998;DHT22;55949;52.590;7.330;2024-03-08T03:08:45;3.60;99.90
62998;DHT22;55949;52.590;7.330;2024-03-08T03:09:48;3.50;99.90
62998;DHT22;55949;52.590;7.330;2024-03-08T03:10:49;3.50;99.90
62998;DHT22;55949;52.590;7.330;2024-03-08T03:11:50;3.50;99.90
62998;DHT22;55949;52.590;7.330;2024-03-08T03:12:51;3.50;99.90
62998;DHT22;55949;52.590;7.330;2024-03-08T03:13:52;3.50;99.90
62998;DHT22;55949;52.590;7.330;2024-03-08T03:14:53;3.50;99.90
62998;DHT22;55949;52.590;7.330;2024-03-08T03:15:53;3.50;99.90
62998;DHT22;55949;52.590;7.330;2024-03-08T03:16:55;3.50;99.90
62998;DHT22;55949;52.590;7.330;2024-03-08T03:17:56;3.50;99.90
62998;DHT22;55949;52.590;7.330;2024-03-08T03:18:56;3.50;99.90
62998;DHT22;55949;52.590;7.330;2024-03-08T03:19:59;3.50;99.90
62998;DHT22;55949;52.590;7.330;2024-03-08T03:21:03;3.50;99.90
62998;DHT22;55949;52.590;7.330;2024-03-08T03:22:08;3.50;99.90
62998;DHT22;55949;52.590;7.330;2024-03-08T03:23:10;3.50;99.90
62998;DHT22;55949;52.590;7.330;2024-03-08T03:24:14;3.40;99.90
62998;DHT22;55949;52.590;7.330;2024-03-08T03:25:17;3.40;99.90
62998;DHT22;55949;52.590;7.330;2024-03-08T03:26:24;3.40;99.90
62998;DHT22;55949;52.590;7.330;2024-03-08T03:27:24;3.40;99.90
62998;DHT22;55949;52.590;7.330;2024-03-08T03:28:25;3.40;99.90
62998;DHT22;55949;52.590;7.330;2024-03-08T03:29:28;3.40;99.90
62998;DHT22;55949;52.590;7.330;2024-03-08T03:30:30;3.40;99.90
62998;DHT22;55949;52.590;7.330;2024-03-08T03:31:33;3.40;99.90
62998;DHT22;55949;52.590;7.330;2024-03-08T03:32:34;3.40;99.90
62998;DHT22;55949;52.590;7.330;2024-03-08T03:33:47;3.40;99.90
62998;DHT22;55949;52.590;7.330;2024-03-08T03:34:47;3.40;99.90
62998;DHT22;55949;52.590;7.330;2024-03-08T03:35:48;3.40;99.90
62998;DHT22;55949;52.590;7.330;2024-03-08T03:36:49;3.40;99.90
62998;DHT22;55949;52.590;7.330;2024-03-08T03:37:50;3.40;99.90
62998;DHT22;55949;52.590;7.330;2024-03-08T03:39:09;3.40;99.90
62998;DHT22;55949;52.590;7.330;2024-03-08T03:40:16;3.40;99.90
62998;DHT22;55949;52.590;7.330;2024-03-08T03:41:19;3.40;99.90
62998;DHT22;55949;52.590;7.330;2024-03-08T03:42:20;3.40;99.90
62998;DHT22;55949;52.590;7.330;2024-03-08T03:43:21;3.40;99.90
62998;DHT22;55949;52.590;7.330;2024-03-08T03:44:22;3.50;99.90
62998;DHT22;55949;52.590;7.330;2024-03-08T03:45:24;3.40;99.90
62998;DHT22;55949;52.590;7.330;2024-03-08T03:46:25;3.40;99.90
62998;DHT22;55949;52.590;7.330;2024-03-08T03:47:27;3.50;99.90
62998;DHT22;55949;52.590;7.330;2024-03-08T03:48:28;3.40;99.90
62998;DHT22;55949;52.590;7.330;2024-03-08T03:49:28;3.40;99.90
62998;DHT22;55949;52.590;7.330;2024-03-08T03:50:29;3.40;99.90
62998;DHT22;55949;52.590;7.330;2024-03-08T03:51:30;3.40;99.90
62998;DHT22;55949;52.590;7.330;2024-03-08T03:52:31;3.40;99.90
62998;DHT22;55949;52.590;7.330;2024-03-08T03:53:32;3.40;99.90
62998;DHT22;55949;52.590;7.330;2024-03-08T03:54:33;3.40;99.90
62998;DHT22;55949;52.590;7.330;2024-03-08T03:55:34;3.30;99.90
62998;DHT22;55949;52.590;7.330;2024-03-08T03:56:37;3.30;99.90
62998;DHT22;55949;52.590;7.330;2024-03-08T03:57:38;3.40;99.90
62998;DHT22;55949;52.590;7.330;2024-03-08T03:58:38;3.40;99.90
62998;DHT22;55949;52.590;7.330;2024-03-08T03:59:40;3.40;99.90
62998;DHT22;55949;52.590;7.330;2024-03-08T04:00:41;3.30;99.90
62998;DHT22;55949;52.590;7.330;2024-03-08T04:01:42;3.30;99.90
62998;DHT22;55949;52.590;7.330;2024-03-08T04:02:43;3.30;99.90
62998;DHT22;55949;52.590;7.330;2024-03-08T04:03:44;3.30;99.90
62998;DHT22;55949;52.590;7.330;2024-03-08T04:04:46;3.30;99.90
62998;DHT22;55949;52.590;7.330;2024-03-08T04:05:48;3.40;99.90
62998;DHT22;55949;52.590;7.330;2024-03-08T04:06:49;3.40;99.90
62998;DHT22;55949;52.590;7.330;2024-03-08T04:07:51;3.30;99.90
62998;DHT22;55949;52.590;7.330;2024-03-08T04:08:52;3.30;99.90
62998;DHT22;55949;52.590;7.330;2024-03-08T04:09:53;3.20;99.90
62998;DHT22;55949;52.590;7.330;2024-03-08T04:10:54;3.20;99.90
62998;DHT22;55949;52.590;7.330;2024-03-08T04:11:55;3.30;99.90
62998;DHT22;55949;52.590;7.330;2024-03-08T04:12:57;3.30;99.90
62998;DHT22;55949;52.590;7.330;2024-03-08T04:13:57;3.30;99.90
62998;DHT22;55949;52.590;7.330;2024-03-08T04:14:58;3.30;99.90
62998;DHT22;55949;52.590;7.330;2024-03-08T04:15:59;3.30;99.90
62998;DHT22;55949;52.590;7.330;2024-03-08T04:17:00;3.30;99.90
62998;DHT22;55949;52.590;7.330;2024-03-08T04:18:01;3.30;99.90
62998;DHT22;55949;52.590;7.330;2024-03-08T04:19:05;3.30;99.90
62998;DHT22;55949;52.590;7.330;2024-03-08T04:20:06;3.30;99.90
62998;DHT22;55949;52.590;7.330;2024-03-08T04:21:18;3.20;99.90
62998;DHT22;55949;52.590;7.330;2024-03-08T04:22:21;3.20;99.90
62998;DHT22;55949;52.590;7.330;2024-03-08T04:23:29;3.20;99.90
62998;DHT22;55949;52.590;7.330;2024-03-08T04:24:45;3.20;99.90
62998;DHT22;55949;52.590;7.330;2024-03-08T04:25:46;3.20;99.90
62998;DHT22;55949;52.590;7.330;2024-03-08T04:26:47;3.20;99.90
62998;DHT22;55949;52.590;7.330;2024-03-08T04:27:48;3.20;99.90
62998;DHT22;55949;52.590;7.330;2024-03-08T04:28:49;3.10;99.90
62998;DHT22;55949;52.590;7.330;2024-03-08T04:30:52;3.20;99.90
62998;DHT22;55949;52.590;7.330;2024-03-08T04:31:52;3.10;99.90
62998;DHT22;55949;52.590;7.330;2024-03-08T04:32:54;3.10;99.90
62998;DHT22;55949;52.590;7.330;2024-03-08T04:33:55;3.10;99.90
62998;DHT22;55949;52.590;7.330;2024-03-08T04:34:56;3.20;99.90
62998;DHT22;55949;52.590;7.330;2024-03-08T04:35:57;3.20;99.90
62998;DHT22;55949;52.590;7.330;2024-03-08T04:36:58;3.20;99.90
62998;DHT22;55949;52.590;7.330;2024-03-08T04:37:59;3.20;99.90
62998;DHT22;55949;52.590;7.330;2024-03-08T04:39:00;3.20;99.90
62998;DHT22;55949;52.590;7.330;2024-03-08T09:40:17;5.60;99.90
62998;DHT22;55949;52.590;7.330;2024-03-08T09:41:19;5.50;99.90
62998;DHT22;55949;52.590;7.330;2024-03-08T09:42:20;5.60;99.90
62998;DHT22;55949;52.590;7.330;2024-03-08T09:43:21;5.60;99.90
62998;DHT22;55949;52.590;7.330;2024-03-08T09:44:24;5.70;99.90
62998;DHT22;55949;52.590;7.330;2024-03-08T09:45:25;5.80;99.90
62998;DHT22;55949;52.590;7.330;2024-03-08T09:46:26;5.80;99.90
62998;DHT22;55949;52.590;7.330;2024-03-08T09:47:28;5.80;99.90
62998;DHT22;55949;52.590;7.330;2024-03-08T09:48:34;5.70;99.90
62998;DHT22;55949;52.590;7.330;2024-03-08T09:49:35;5.70;99.90
62998;DHT22;55949;52.590;7.330;2024-03-08T09:50:36;5.80;99.90
62998;DHT22;55949;52.590;7.330;2024-03-08T09:51:37;5.80;99.90
62998;DHT22;55949;52.590;7.330;2024-03-08T09:52:41;5.80;99.90
62998;DHT22;55949;52.590;7.330;2024-03-08T09:53:44;5.80;99.90
62998;DHT22;55949;52.590;7.330;2024-03-08T09:54:45;5.80;99.90
62998;DHT22;55949;52.590;7.330;2024-03-08T09:55:45;5.90;99.90
62998;DHT22;55949;52.590;7.330;2024-03-08T09:56:47;5.90;99.90
62998;DHT22;55949;52.590;7.330;2024-03-08T09:57:51;5.90;99.90
62998;DHT22;55949;52.590;7.330;2024-03-08T09:59:12;6.00;99.90
62998;DHT22;55949;52.590;7.330;2024-03-08T10:00:13;6.10;99.90
62998;DHT22;55949;52.590;7.330;2024-03-08T10:01:26;6.20;99.90
62998;DHT22;55949;52.590;7.330;2024-03-08T10:02:27;6.20;99.90
62998;DHT22;55949;52.590;7.330;2024-03-08T10:03:29;6.30;99.90
62998;DHT22;55949;52.590;7.330;2024-03-08T10:04:30;6.20;99.90
62998;DHT22;55949;52.590;7.330;2024-03-08T10:05:33;6.30;99.90
62998;DHT22;55949;52.590;7.330;2024-03-08T10:06:34;6.30;99.90
62998;DHT22;55949;52.590;7.330;2024-03-08T10:07:34;6.40;99.90
62998;DHT22;55949;52.590;7.330;2024-03-08T10:08:35;6.30;99.90
62998;DHT22;55949;52.590;7.330;2024-03-08T10:09:37;6.50;99.90
62998;DHT22;55949;52.590;7.330;2024-03-08T10:10:38;6.40;99.90
62998;DHT22;55949;52.590;7.330;2024-03-08T10:11:40;6.50;99.90
62998;DHT22;55949;52.590;7.330;2024-03-08T11:07:02;7.70;99.90
62998;DHT22;55949;52.590;7.330;2024-03-08T11:08:18;7.90;99.90
62998;DHT22;55949;52.590;7.330;2024-03-08T11:09:29;7.90;99.90
62998;DHT22;55949;52.590;7.330;2024-03-08T11:10:30;7.90;99.90
62998;DHT22;55949;52.590;7.330;2024-03-08T11:11:32;7.80;99.90
62998;DHT22;55949;52.590;7.330;2024-03-08T11:12:37;8.00;99.90
62998;DHT22;55949;52.590;7.330;2024-03-08T11:13:42;8.00;99.90
62998;DHT22;55949;52.590;7.330;2024-03-08T11:14:47;8.00;99.90
62998;DHT22;55949;52.590;7.330;2024-03-08T11:15:51;7.90;99.90
62998;DHT22;55949;52.590;7.330;2024-03-08T11:16:52;8.00;99.90
62998;DHT22;55949;52.590;7.330;2024-03-08T11:17:58;8.10;99.90
62998;DHT22;55949;52.590;7.330;2024-03-08T11:19:01;8.30;99.90
62998;DHT22;55949;52.590;7.330;2024-03-08T11:20:13;8.30;99.90
62998;DHT22;55949;52.590;7.330;2024-03-08T11:21:17;8.30;99.90
62998;DHT22;55949;52.590;7.330;2024-03-08T11:22:22;8.30;99.90
62998;DHT22;55949;52.590;7.330;2024-03-08T11:23:24;8.30;99.90
62998;DHT22;55949;52.590;7.330;2024-03-08T11:24:26;8.30;99.90
62998;DHT22;55949;52.590;7.330;2024-03-08T11:25:34;8.40;99.90
62998;DHT22;55949;52.590;7.330;2024-03-08T11:26:38;8.40;99.90
62998;DHT22;55949;52.590;7.330;2024-03-08T11:27:53;8.40;99.90
62998;DHT22;55949;52.590;7.330;2024-03-08T11:30:28;8.60;99.90
62998;DHT22;55949;52.590;7.330;2024-03-08T11:31:29;8.50;99.90
62998;DHT22;55949;52.590;7.330;2024-03-08T11:32:33;8.60;99.90
62998;DHT22;55949;52.590;7.330;2024-03-08T11:33:35;8.60;99.90
62998;DHT22;55949;52.590;7.330;2024-03-08T11:34:37;8.60;99.90
62998;DHT22;55949;52.590;7.330;2024-03-08T11:35:40;8.70;99.90
62998;DHT22;55949;52.590;7.330;2024-03-08T11:36:42;8.70;99.90
62998;DHT22;55949;52.590;7.330;2024-03-08T11:37:43;8.80;99.90
62998;DHT22;55949;52.590;7.330;2024-03-08T11:38:45;8.70;99.90
62998;DHT22;55949;52.590;7.330;2024-03-08T11:39:53;8.80;99.90
62998;DHT22;55949;52.590;7.330;2024-03-08T11:40:59;8.90;99.90
62998;DHT22;55949;52.590;7.330;2024-03-08T11:41:59;8.80;99.90
62998;DHT22;55949;52.590;7.330;2024-03-08T11:43:00;8.80;99.90
62998;DHT22;55949;52.590;7.330;2024-03-08T11:44:05;8.70;99.90
62998;DHT22;55949;52.590;7.330;2024-03-08T11:45:09;8.60;99.90
62998;DHT22;55949;52.590;7.330;2024-03-08T11:46:12;8.60;99.90
62998;DHT22;55949;52.590;7.330;2024-03-08T11:47:14;8.70;99.90
62998;DHT22;55949;52.590;7.330;2024-03-08T12:02:08;8.70;99.90
62998;DHT22;55949;52.590;7.330;2024-03-08T12:03:42;8.70;99.90
62998;DHT22;55949;52.590;7.330;2024-03-08T12:04:44;8.80;99.90
62998;DHT22;55949;52.590;7.330;2024-03-08T12:05:57;8.80;99.90
62998;DHT22;55949;52.590;7.330;2024-03-08T12:16:55;9.00;99.90
62998;DHT22;55949;52.590;7.330;2024-03-08T12:22:30;9.20;99.90
62998;DHT22;55949;52.590;7.330;2024-03-08T12:29:44;9.40;99.90
62998;DHT22;55949;52.590;7.330;2024-03-08T12:30:49;9.40;99.90
62998;DHT22;55949;52.590;7.330;2024-03-08T12:31:58;9.40;99.90
62998;DHT22;55949;52.590;7.330;2024-03-08T12:33:00;9.60;99.90
62998;DHT22;55949;52.590;7.330;2024-03-08T12:34:01;9.60;99.90
62998;DHT22;55949;52.590;7.330;2024-03-08T12:35:07;9.60;99.90
62998;DHT22;55949;52.590;7.330;2024-03-08T12:36:14;9.60;99.90
62998;DHT22;55949;52.590;7.330;2024-03-08T12:37:15;9.60;99.90
62998;DHT22;55949;52.590;7.330;2024-03-08T12:38:17;9.60;99.90
62998;DHT22;55949;52.590;7.330;2024-03-08T12:39:18;9.70;99.90
62998;DHT22;55949;52.590;7.330;2024-03-08T12:40:31;9.70;99.90
62998;DHT22;55949;52.590;7.330;2024-03-08T12:41:39;9.80;99.90
62998;DHT22;55949;52.590;7.330;2024-03-08T12:42:41;9.80;99.90
62998;DHT22;55949;52.590;7.330;2024-03-08T12:43:42;9.90;99.90
62998;DHT22;55949;52.590;7.330;2024-03-08T12:44:45;9.90;99.90
62998;DHT22;55949;52.590;7.330;2024-03-08T12:45:47;10.00;99.90
62998;DHT22;55949;52.590;7.330;2024-03-08T12:46:48;10.00;99.90
62998;DHT22;55949;52.590;7.330;2024-03-08T12:47:50;9.90;99.90
62998;DHT22;55949;52.590;7.330;2024-03-08T12:48:51;10.00;99.90
62998;DHT22;55949;52.590;7.330;2024-03-08T13:54:27;10.20;99.90
62998;DHT22;55949;52.590;7.330;2024-03-08T13:55:33;10.30;99.90
62998;DHT22;55949;52.590;7.330;2024-03-08T13:56:37;10.30;99.90
62998;DHT22;55949;52.590;7.330;2024-03-08T13:57:40;10.30;99.90
62998;DHT22;55949;52.590;7.330;2024-03-08T13:58:41;10.30;99.90
62998;DHT22;55949;52.590;7.330;2024-03-08T13:59:48;10.30;99.90
62998;DHT22;55949;52.590;7.330;2024-03-08T14:00:53;10.30;99.90
62998;DHT22;55949;52.590;7.330;2024-03-08T14:02:01;10.20;99.90
62998;DHT22;55949;52.590;7.330;2024-03-08T14:03:03;10.20;99.90
62998;DHT22;55949;52.590;7.330;2024-03-08T14:04:12;10.20;99.90
62998;DHT22;55949;52.590;7.330;2024-03-08T14:05:13;10.30;99.90
62998;DHT22;55949;52.590;7.330;2024-03-08T14:06:18;10.30;99.90
62998;DHT22;55949;52.590;7.330;2024-03-08T14:07:19;10.40;99.90
62998;DHT22;55949;52.590;7.330;2024-03-08T14:08:21;10.40;99.90
62998;DHT22;55949;52.590;7.330;2024-03-08T14:09:24;10.30;99.90
62998;DHT22;55949;52.590;7.330;2024-03-08T14:10:25;10.30;99.90
62998;DHT22;55949;52.590;7.330;2024-03-08T14:13:31;10.50;99.90
62998;DHT22;55949;52.590;7.330;2024-03-08T14:14:34;10.50;99.90
62998;DHT22;55949;52.590;7.330;2024-03-08T14:15:38;10.60;99.90
62998;DHT22;55949;52.590;7.330;2024-03-08T14:16:43;10.60;99.90
62998;DHT22;55949;52.590;7.330;2024-03-08T14:17:45;10.60;99.90
62998;DHT22;55949;52.590;7.330;2024-03-08T14:18:47;10.60;99.90
62998;DHT22;55949;52.590;7.330;2024-03-08T14:19:49;10.50;99.90
62998;DHT22;55949;52.590;7.330;2024-03-08T14:20:51;10.50;99.90